createdAt,value
2022-12-26T00:00:26.763Z,4.75
2022-12-26T00:02:53.269Z,4.88
2022-12-26T00:05:20.085Z,4.57
2022-12-26T00:07:46.692Z,3.90
2022-12-26T00:10:13.008Z,6.63
2022-12-26T00:12:39.728Z,4.57
2022-12-26T00:15:06.702Z,5.13
2022-12-26T00:17:33.069Z,3.90
2022-12-26T00:19:59.790Z,7.13
2022-12-26T00:22:26.247Z,6.72
2022-12-26T00:24:52.616Z,6.00
2022-12-26T00:27:19.152Z,5.30
2022-12-26T00:29:47.574Z,5.78
2022-12-26T00:32:13.911Z,5.35
2022-12-26T00:34:40.895Z,6.60
2022-12-26T00:37:07.227Z,5.78
2022-12-26T00:39:33.546Z,6.93
2022-12-26T00:42:00.394Z,6.03
2022-12-26T00:44:26.733Z,6.85
2022-12-26T00:46:53.206Z,7.65
2022-12-26T00:49:19.990Z,4.90
2022-12-26T00:51:46.760Z,5.80
2022-12-26T00:54:13.107Z,6.25
2022-12-26T00:56:39.546Z,8.13
2022-12-26T00:59:06.684Z,6.57
2022-12-26T01:01:33.837Z,7.10
2022-12-26T01:04:00.348Z,6.35
2022-12-26T01:06:27.254Z,7.20
2022-12-26T01:08:53.971Z,6.60
2022-12-26T01:11:40.738Z,6.47
2022-12-26T01:14:13.567Z,6.45
2022-12-26T01:16:42.043Z,6.60
2022-12-26T01:19:09.564Z,5.70
2022-12-26T01:21:35.997Z,6.65
2022-12-26T01:24:02.782Z,6.30
2022-12-26T01:26:29.460Z,7.53
2022-12-26T01:28:55.905Z,5.97
2022-12-26T01:31:23.103Z,7.45
2022-12-26T01:33:49.947Z,7.38
2022-12-26T01:36:18.094Z,6.50
2022-12-26T01:38:45.282Z,6.18
2022-12-26T01:41:20.269Z,6.70
2022-12-26T01:43:52.340Z,7.07
2022-12-26T01:46:40.594Z,6.95
2022-12-26T01:49:19.189Z,6.85
2022-12-26T01:51:51.686Z,8.50
2022-12-26T01:54:37.602Z,6.85
2022-12-26T01:57:12.733Z,7.05
2022-12-26T01:59:41.900Z,6.93
2022-12-26T02:02:09.730Z,6.93
2022-12-26T02:04:58.742Z,5.47
2022-12-26T02:07:26.485Z,6.18
2022-12-26T02:09:53.241Z,6.10
2022-12-26T02:12:35.508Z,6.25
2022-12-26T02:15:08.564Z,4.32
2022-12-26T02:17:35.305Z,6.53
2022-12-26T02:20:22.315Z,7.38
2022-12-26T02:23:20.790Z,7.38
2022-12-26T02:26:25.035Z,6.97
2022-12-26T02:29:13.318Z,6.78
2022-12-26T02:31:53.863Z,6.68
2022-12-26T02:34:20.609Z,6.00
2022-12-26T02:37:08.613Z,6.07
2022-12-26T02:39:55.356Z,6.03
2022-12-26T02:42:34.029Z,3.20
2022-12-26T02:45:42.037Z,5.13
2022-12-26T02:48:27.656Z,3.88
2022-12-26T02:51:34.349Z,5.70
2022-12-26T02:54:53.282Z,5.10
2022-12-26T02:57:42.766Z,4.13
2022-12-26T03:00:35.926Z,4.60
2022-12-26T03:03:35.888Z,5.20
2022-12-26T03:06:37.412Z,6.07
2022-12-26T03:09:27.124Z,4.93
2022-12-26T03:12:17.927Z,3.42
2022-12-26T03:14:55.462Z,3.22
2022-12-26T03:17:35.584Z,4.07
2022-12-26T03:20:10.580Z,5.40
2022-12-26T03:22:46.706Z,3.83
2022-12-26T03:25:39.011Z,4.32
2022-12-26T03:28:05.428Z,2.85
2022-12-26T03:30:50.185Z,2.88
2022-12-26T03:33:35.249Z,3.53
2022-12-26T03:36:02.494Z,3.53
2022-12-26T03:38:51.131Z,3.78
2022-12-26T03:41:46.606Z,2.55
2022-12-26T03:44:53.926Z,3.25
2022-12-26T03:47:42.660Z,3.20
2022-12-26T03:50:56.259Z,2.53
2022-12-26T03:54:11.852Z,3.20
2022-12-26T03:57:04.666Z,3.70
2022-12-26T04:00:00.392Z,3.90
2022-12-26T04:02:47.915Z,2.97
2022-12-26T04:05:36.604Z,2.40
2022-12-26T04:08:29.425Z,3.25
2022-12-26T04:11:17.029Z,3.60
2022-12-26T04:14:32.670Z,3.75
2022-12-26T04:17:44.216Z,3.78
2022-12-26T04:20:22.095Z,3.67
2022-12-26T04:23:10.077Z,2.95
2022-12-26T04:26:04.205Z,2.40
2022-12-26T04:28:49.780Z,3.42
2022-12-26T04:31:54.533Z,2.45
2022-12-26T04:34:55.778Z,2.95
2022-12-26T04:37:44.427Z,4.22
2022-12-26T04:40:36.653Z,2.13
2022-12-26T04:43:47.149Z,3.08
2022-12-26T04:46:16.975Z,3.58
2022-12-26T04:49:05.940Z,2.45
2022-12-26T04:51:32.350Z,2.63
2022-12-26T04:53:58.706Z,3.38
2022-12-26T04:56:25.538Z,4.35
2022-12-26T04:58:52.039Z,3.42
2022-12-26T05:01:37.485Z,3.88
2022-12-26T05:04:22.692Z,4.32
2022-12-26T05:07:08.327Z,3.80
2022-12-26T05:09:35.118Z,4.93
2022-12-26T05:12:08.128Z,2.60
2022-12-26T05:14:35.924Z,4.15
2022-12-26T05:17:25.865Z,3.72
2022-12-26T05:20:11.081Z,4.55
2022-12-26T05:25:45.609Z,3.95
2022-12-26T05:28:33.767Z,4.03
2022-12-26T05:31:00.252Z,3.35
2022-12-26T05:33:45.868Z,3.97
2022-12-26T05:36:14.468Z,3.70
2022-12-26T05:38:40.884Z,4.40
2022-12-26T05:41:07.742Z,4.38
2022-12-26T05:43:34.226Z,4.97
2022-12-26T05:46:00.587Z,3.83
2022-12-26T05:48:27.249Z,3.75
2022-12-26T05:50:58.605Z,4.22
2022-12-26T05:53:24.933Z,4.28
2022-12-26T05:55:51.639Z,4.13
2022-12-26T05:58:18.062Z,4.45
2022-12-26T06:00:44.394Z,3.42
2022-12-26T06:03:10.834Z,4.28
2022-12-26T06:05:37.672Z,6.32
2022-12-26T06:08:04.447Z,5.07
2022-12-26T06:10:30.788Z,4.22
2022-12-26T06:12:57.671Z,5.45
2022-12-26T06:15:23.996Z,6.10
2022-12-26T06:17:50.320Z,5.07
2022-12-26T06:20:17.206Z,5.07
2022-12-26T06:22:43.549Z,4.93
2022-12-26T06:25:10.307Z,4.82
2022-12-26T06:27:36.643Z,3.90
2022-12-26T06:30:04.245Z,5.22
2022-12-26T06:32:30.618Z,3.17
2022-12-26T06:34:56.943Z,6.63
2022-12-26T06:37:23.803Z,4.72
2022-12-26T06:39:50.166Z,6.72
2022-12-26T06:42:16.492Z,4.78
2022-12-26T06:44:43.302Z,7.07
2022-12-26T06:47:09.713Z,7.65
2022-12-26T06:49:36.125Z,6.95
2022-12-26T06:52:03.301Z,7.18
2022-12-26T06:54:29.630Z,7.10
2022-12-26T06:56:55.974Z,5.80
2022-12-26T06:59:22.791Z,7.50
2022-12-26T07:01:49.392Z,6.43
2022-12-26T07:04:15.857Z,4.63
2022-12-26T07:06:42.772Z,7.10
2022-12-26T07:09:14.159Z,6.50
2022-12-26T07:11:44.391Z,4.90
2022-12-26T07:14:10.954Z,5.10
2022-12-26T07:16:39.877Z,4.63
2022-12-26T07:19:07.723Z,5.25
2022-12-26T07:21:40.021Z,4.35
2022-12-26T07:24:09.482Z,5.13
2022-12-26T07:26:35.828Z,5.25
2022-12-26T07:29:02.160Z,5.50
2022-12-26T07:31:29.650Z,5.18
2022-12-26T07:33:56.439Z,5.15
2022-12-26T07:36:24.949Z,4.85
2022-12-26T07:38:51.676Z,6.18
2022-12-26T07:41:36.881Z,5.75
2022-12-26T07:46:30.533Z,6.10
2022-12-26T07:48:57.260Z,7.25
2022-12-26T07:51:23.883Z,7.60
2022-12-26T07:53:50.282Z,6.50
2022-12-26T07:56:17.086Z,6.38
2022-12-26T07:58:43.493Z,7.72
2022-12-26T08:01:10.219Z,4.15
2022-12-26T08:03:37.262Z,4.78
2022-12-26T08:06:03.760Z,5.63
2022-12-26T08:08:30.158Z,4.70
2022-12-26T08:11:02.036Z,4.75
2022-12-26T08:13:29.245Z,5.45
2022-12-26T08:15:56.854Z,3.15
2022-12-26T08:18:24.295Z,4.43
2022-12-26T08:20:50.710Z,5.45
2022-12-26T08:23:17.821Z,4.35
2022-12-26T08:25:44.217Z,5.10
2022-12-26T08:28:10.570Z,4.90
2022-12-26T08:30:40.694Z,4.53
2022-12-26T08:33:08.462Z,6.20
2022-12-26T08:35:36.353Z,4.63
2022-12-26T08:38:03.136Z,5.88
2022-12-26T08:40:42.705Z,5.50
2022-12-26T08:46:05.604Z,4.88
2022-12-26T08:48:33.637Z,5.53
2022-12-26T08:51:05.027Z,5.82
2022-12-26T08:53:32.912Z,5.95
2022-12-26T08:55:59.944Z,5.53
2022-12-26T08:58:28.398Z,4.60
2022-12-26T09:00:55.805Z,7.22
2022-12-26T09:03:22.951Z,6.68
2022-12-26T09:05:49.372Z,5.25
2022-12-26T09:08:16.488Z,4.30
2022-12-26T09:10:42.821Z,7.05
2022-12-26T09:13:09.181Z,6.35
2022-12-26T09:15:36.047Z,5.82
2022-12-26T09:18:02.414Z,4.70
2022-12-26T09:20:28.752Z,7.18
2022-12-26T09:22:55.846Z,7.25
2022-12-26T09:25:24.410Z,6.53
2022-12-26T09:27:58.769Z,7.80
2022-12-26T09:30:25.782Z,4.72
2022-12-26T09:32:53.059Z,4.32
2022-12-26T09:35:19.567Z,6.75
2022-12-26T09:37:46.353Z,7.47
2022-12-26T09:40:23.649Z,6.68
2022-12-26T09:43:09.544Z,6.03
2022-12-26T09:46:27.406Z,8.02
2022-12-26T09:49:01.357Z,5.57
2022-12-26T09:51:30.848Z,5.73
2022-12-26T09:53:59.944Z,8.75
2022-12-26T09:59:18.956Z,8.57
2022-12-26T10:01:48.809Z,8.27
2022-12-26T10:04:29.840Z,6.18
2022-12-26T10:07:18.427Z,7.20
2022-12-26T10:10:08.071Z,7.70
2022-12-26T10:13:08.073Z,7.00
2022-12-26T10:15:48.385Z,6.38
2022-12-26T10:18:59.277Z,4.43
2022-12-26T10:21:48.447Z,6.10
2022-12-26T10:24:18.468Z,5.15
2022-12-26T10:26:50.062Z,5.53
2022-12-26T10:29:28.006Z,5.85
2022-12-26T10:32:01.784Z,6.10
2022-12-26T10:34:41.766Z,5.07
2022-12-26T10:37:23.223Z,4.90
2022-12-26T10:40:19.915Z,5.13
2022-12-26T10:42:54.514Z,5.05
2022-12-26T10:46:10.358Z,5.80
2022-12-26T10:48:36.883Z,5.07
2022-12-26T10:51:03.373Z,4.88
2022-12-26T10:53:29.786Z,4.70
2022-12-26T10:55:57.574Z,5.35
2022-12-26T10:58:30.851Z,6.40
2022-12-26T11:00:57.700Z,5.28
2022-12-26T11:03:24.102Z,5.63
2022-12-26T11:06:09.401Z,4.72
2022-12-26T11:08:47.742Z,5.65
2022-12-26T11:11:25.418Z,5.53
2022-12-26T11:14:02.325Z,6.22
2022-12-26T11:16:32.056Z,5.70
2022-12-26T11:18:59.837Z,7.13
2022-12-26T11:21:29.546Z,6.82
2022-12-26T11:24:17.873Z,6.30
2022-12-26T11:26:44.203Z,6.13
2022-12-26T11:29:29.642Z,5.88
2022-12-26T11:31:59.024Z,5.45
2022-12-26T11:34:38.825Z,6.32
2022-12-26T11:37:06.799Z,6.53
2022-12-26T11:39:38.575Z,6.78
2022-12-26T11:42:15.774Z,5.95
2022-12-26T11:44:45.774Z,6.20
2022-12-26T11:47:15.064Z,4.38
2022-12-26T11:50:10.559Z,3.40
2022-12-26T11:52:52.288Z,3.05
2022-12-26T11:55:32.732Z,2.40
2022-12-26T11:58:15.161Z,2.30
2022-12-26T12:00:45.167Z,1.23
2022-12-26T12:03:16.016Z,1.33
2022-12-26T12:06:08.168Z,1.13
2022-12-26T12:08:40.546Z,1.10
2022-12-26T12:11:14.802Z,1.00
2022-12-26T12:13:53.333Z,1.38
2022-12-26T12:16:26.490Z,1.02
2022-12-26T12:19:20.947Z,0.93
2022-12-26T12:22:25.532Z,0.85
2022-12-26T12:25:08.655Z,0.90
2022-12-26T12:28:04.957Z,1.02
2022-12-26T12:30:31.224Z,1.00
2022-12-26T12:33:26.423Z,2.03
2022-12-26T12:36:11.769Z,1.10
2022-12-26T12:39:00.861Z,1.20
2022-12-26T12:42:00.488Z,1.50
2022-12-26T12:44:42.002Z,1.98
2022-12-26T12:47:22.758Z,2.30
2022-12-26T12:50:00.818Z,4.20
2022-12-26T12:53:04.863Z,4.72
2022-12-26T12:55:37.957Z,5.40
2022-12-26T12:58:18.820Z,6.28
2022-12-26T13:00:53.371Z,5.68
2022-12-26T13:03:39.635Z,5.25
2022-12-26T13:06:16.581Z,4.18
2022-12-26T13:09:02.359Z,4.35
2022-12-26T13:11:49.314Z,4.88
2022-12-26T13:14:42.019Z,4.55
2022-12-26T13:17:15.197Z,5.25
2022-12-26T13:20:04.451Z,5.22
2022-12-26T13:22:55.097Z,4.80
2022-12-26T13:25:25.270Z,4.93
2022-12-26T13:27:56.157Z,6.25
2022-12-26T13:30:29.340Z,5.78
2022-12-26T13:32:56.908Z,6.25
2022-12-26T13:35:52.117Z,6.03
2022-12-26T13:38:19.884Z,6.47
2022-12-26T13:40:55.709Z,5.13
2022-12-26T13:43:43.229Z,5.50
2022-12-26T13:46:34.370Z,6.13
2022-12-26T13:49:01.010Z,5.28
2022-12-26T13:51:57.908Z,4.85
2022-12-26T13:54:26.849Z,5.28
2022-12-26T13:56:56.277Z,3.88
2022-12-26T13:59:32.528Z,3.58
2022-12-26T14:02:20.036Z,1.27
2022-12-26T14:05:23.478Z,2.13
2022-12-26T14:07:59.204Z,3.53
2022-12-26T14:10:39.259Z,5.38
2022-12-26T14:13:11.938Z,5.20
2022-12-26T14:15:57.764Z,4.93
2022-12-26T14:18:33.249Z,4.40
2022-12-26T14:21:30.731Z,3.83
2022-12-26T14:24:00.724Z,2.28
2022-12-26T14:27:15.263Z,3.25
2022-12-26T14:29:55.843Z,2.72
2022-12-26T14:32:50.986Z,2.95
2022-12-26T14:35:39.656Z,3.10
2022-12-26T14:38:30.676Z,4.78
2022-12-26T14:41:05.028Z,4.22
2022-12-26T14:43:31.387Z,2.35
2022-12-26T14:45:58.119Z,3.58
2022-12-26T14:48:27.638Z,4.82
2022-12-26T14:51:03.064Z,3.75
2022-12-26T14:53:35.281Z,3.33
2022-12-26T14:56:04.122Z,4.28
2022-12-26T14:58:42.981Z,3.20
2022-12-26T15:01:09.374Z,3.10
2022-12-26T15:03:54.668Z,2.65
2022-12-26T15:06:22.418Z,3.72
2022-12-26T15:09:02.379Z,4.15
2022-12-26T15:12:03.745Z,4.03
2022-12-26T15:14:48.525Z,3.58
2022-12-26T15:17:43.215Z,3.50
2022-12-26T15:20:39.686Z,2.90
2022-12-26T15:23:19.957Z,2.97
2022-12-26T15:25:52.848Z,2.47
2022-12-26T15:28:43.686Z,3.03
2022-12-26T15:31:25.537Z,2.17
2022-12-26T15:34:29.553Z,2.13
2022-12-26T15:37:14.849Z,1.20
2022-12-26T15:43:00.129Z,1.80
2022-12-26T15:45:37.479Z,1.65
2022-12-26T15:48:25.519Z,1.00
2022-12-26T15:51:03.569Z,1.33
2022-12-26T15:53:39.855Z,0.77
2022-12-26T15:56:32.307Z,0.88
2022-12-26T15:59:46.471Z,0.80
2022-12-26T16:02:25.022Z,0.80
2022-12-26T16:08:32.744Z,0.73
2022-12-26T16:11:20.707Z,0.68
2022-12-26T16:13:53.424Z,1.02
2022-12-26T16:16:31.611Z,0.85
2022-12-26T16:18:58.753Z,0.93
2022-12-26T16:21:49.094Z,1.00
2022-12-26T16:24:18.693Z,0.90
2022-12-26T16:26:46.613Z,0.98
2022-12-26T16:29:20.394Z,0.90
2022-12-26T16:31:47.352Z,1.10
2022-12-26T16:34:19.064Z,1.05
2022-12-26T16:36:45.813Z,0.90
2022-12-26T16:39:13.592Z,1.08
2022-12-26T16:42:00.318Z,0.75
2022-12-26T16:44:32.773Z,1.00
2022-12-26T16:47:06.468Z,1.20
2022-12-26T16:49:34.779Z,1.40
2022-12-26T16:52:01.263Z,0.70
2022-12-26T16:54:38.652Z,0.85
2022-12-26T16:57:18.483Z,1.10
2022-12-26T16:59:47.674Z,1.60
2022-12-26T17:02:25.223Z,1.30
2022-12-26T17:04:59.376Z,1.00
2022-12-26T17:07:26.768Z,0.73
2022-12-26T17:09:57.589Z,0.90
2022-12-26T17:12:28.113Z,1.58
2022-12-26T17:14:56.509Z,1.20
2022-12-26T17:17:22.785Z,0.90
2022-12-26T17:19:54.153Z,1.17
2022-12-26T17:22:30.950Z,1.40
2022-12-26T17:25:26.847Z,1.40
2022-12-26T17:28:08.423Z,0.77
2022-12-26T17:30:55.473Z,0.80
2022-12-26T17:33:27.502Z,1.05
2022-12-26T17:38:54.253Z,0.88
2022-12-26T17:41:20.619Z,1.60
2022-12-26T17:43:47.667Z,1.95
2022-12-26T17:46:17.006Z,1.65
2022-12-26T17:48:44.122Z,0.93
2022-12-26T17:51:18.882Z,1.38
2022-12-26T17:53:51.525Z,1.42
2022-12-26T17:56:21.572Z,1.50
2022-12-26T17:58:48.828Z,0.85
2022-12-26T18:01:21.074Z,1.20
2022-12-26T18:03:48.089Z,1.20
2022-12-26T18:06:17.238Z,1.52
2022-12-26T18:08:44.464Z,1.42
2022-12-26T18:11:12.862Z,1.42
2022-12-26T18:13:39.810Z,1.52
2022-12-26T18:16:07.233Z,1.25
2022-12-26T18:18:42.414Z,0.90
2022-12-26T18:21:11.877Z,1.55
2022-12-26T18:23:38.406Z,1.02
2022-12-26T18:26:08.472Z,0.90
2022-12-26T18:28:35.328Z,1.35
2022-12-26T18:31:01.743Z,1.70
2022-12-26T18:33:28.555Z,1.30
2022-12-26T18:35:55.154Z,1.70
2022-12-26T18:38:22.076Z,1.13
2022-12-26T18:40:53.146Z,1.35
2022-12-26T18:43:20.478Z,1.48
2022-12-26T18:45:46.857Z,1.60
2022-12-26T18:48:15.295Z,1.45
2022-12-26T18:50:43.480Z,1.30
2022-12-26T18:53:10.213Z,1.30
2022-12-26T18:55:36.870Z,1.35
2022-12-26T18:58:04.382Z,1.02
2022-12-26T19:00:31.249Z,1.48
2022-12-26T19:02:57.616Z,1.42
2022-12-26T19:05:27.782Z,1.00
2022-12-26T19:07:54.703Z,1.30
2022-12-26T19:10:24.327Z,1.40
2022-12-26T19:12:52.105Z,1.13
2022-12-26T19:15:19.301Z,1.17
2022-12-26T19:17:45.787Z,1.30
2022-12-26T19:20:25.055Z,2.40
2022-12-26T19:22:53.226Z,0.93
2022-12-26T19:25:21.855Z,1.30
2022-12-26T19:27:49.702Z,1.10
2022-12-26T19:30:17.472Z,0.85
2022-12-26T19:32:44.751Z,0.60
2022-12-26T19:35:12.048Z,0.30
2022-12-26T19:37:40.528Z,0.75
2022-12-26T19:40:09.142Z,0.90
2022-12-26T19:42:37.232Z,0.30
2022-12-26T19:45:09.701Z,0.30
2022-12-26T19:47:36.510Z,0.22
2022-12-26T19:50:04.315Z,0.30
2022-12-26T19:52:31.114Z,0.30
2022-12-26T19:54:57.487Z,0.20
2022-12-26T19:57:23.901Z,0.20
2022-12-26T19:59:51.275Z,0.20
2022-12-26T20:02:17.827Z,0.20
2022-12-26T20:04:44.419Z,0.20
2022-12-26T20:07:11.156Z,0.30
2022-12-26T20:09:37.684Z,0.10
2022-12-26T20:12:04.127Z,0.05
2022-12-26T20:14:32.901Z,0.30
2022-12-26T20:17:08.761Z,0.35
2022-12-26T20:19:36.601Z,0.30
2022-12-26T20:22:04.118Z,0.05
2022-12-26T20:24:30.531Z,0.20
2022-12-26T20:26:57.336Z,0.30
2022-12-26T20:29:23.872Z,0.10
2022-12-26T20:31:50.317Z,0.20
2022-12-26T20:34:17.015Z,0.95
2022-12-26T20:36:43.759Z,0.70
2022-12-26T20:39:16.093Z,0.68
2022-12-26T20:41:42.803Z,0.63
2022-12-26T20:44:12.186Z,0.20
2022-12-26T20:46:40.466Z,0.25
2022-12-26T20:49:06.800Z,0.15
2022-12-26T20:51:37.898Z,0.40
2022-12-26T20:54:06.872Z,0.30
2022-12-26T20:56:34.269Z,0.20
2022-12-26T20:59:00.698Z,0.30
2022-12-26T21:01:28.904Z,0.20
2022-12-26T21:03:56.835Z,0.28
2022-12-26T21:06:27.593Z,0.22
2022-12-26T21:08:54.644Z,0.30
2022-12-26T21:11:29.898Z,0.60
2022-12-26T21:14:04.210Z,0.28
2022-12-26T21:16:35.933Z,0.17
2022-12-26T21:19:08.026Z,0.28
2022-12-26T21:21:40.881Z,0.30
2022-12-26T21:24:12.364Z,0.20
2022-12-26T21:26:41.770Z,0.10
2022-12-26T21:29:12.737Z,0.45
2022-12-26T21:31:39.325Z,0.20
2022-12-26T21:34:06.149Z,0.20
2022-12-26T21:36:34.186Z,0.35
2022-12-26T21:39:05.587Z,0.25
2022-12-26T21:41:31.936Z,0.20
2022-12-26T21:43:58.668Z,0.40
2022-12-26T21:46:25.024Z,0.40
2022-12-26T21:48:51.801Z,0.40
2022-12-26T21:51:19.955Z,0.30
2022-12-26T21:53:47.087Z,0.50
2022-12-26T21:56:16.390Z,0.80
2022-12-26T21:59:02.201Z,0.50
2022-12-26T22:01:29.721Z,0.60
2022-12-26T22:04:14.976Z,0.68
2022-12-26T22:09:08.999Z,0.30
2022-12-26T22:11:54.400Z,0.55
2022-12-26T22:14:21.685Z,1.33
2022-12-26T22:16:52.294Z,0.63
2022-12-26T22:19:19.110Z,0.70
2022-12-26T22:21:45.530Z,0.50
2022-12-26T22:24:12.269Z,0.70
2022-12-26T22:26:38.673Z,0.60
2022-12-26T22:29:05.005Z,0.73
2022-12-26T22:31:34.780Z,0.60
2022-12-26T22:34:16.613Z,0.60
2022-12-26T22:36:43.893Z,0.52
2022-12-26T22:39:14.095Z,0.52
2022-12-26T22:41:40.433Z,0.63
2022-12-26T22:44:08.361Z,0.60
2022-12-26T22:46:35.488Z,0.90
2022-12-26T22:49:01.978Z,0.70
2022-12-26T22:51:28.438Z,0.80
2022-12-26T22:53:57.951Z,0.60
2022-12-26T22:56:24.727Z,1.05
2022-12-26T22:59:03.394Z,0.65
2022-12-26T23:01:30.304Z,0.65
2022-12-26T23:03:57.145Z,0.65
2022-12-26T23:06:32.955Z,0.77
2022-12-26T23:09:01.480Z,0.70
2022-12-26T23:11:34.781Z,1.50
2022-12-26T23:14:03.979Z,0.73
2022-12-26T23:16:47.502Z,0.90
2022-12-26T23:19:38.102Z,0.57
2022-12-26T23:22:04.855Z,0.75
2022-12-26T23:24:32.448Z,1.17
2022-12-26T23:27:21.449Z,1.00
2022-12-26T23:30:07.615Z,0.60
2022-12-26T23:32:34.546Z,0.68
2022-12-26T23:35:00.955Z,0.70
2022-12-26T23:37:27.301Z,0.90
2022-12-26T23:39:54.214Z,0.80
2022-12-26T23:42:20.551Z,1.02
2022-12-26T23:44:46.888Z,0.77
2022-12-26T23:47:13.742Z,0.93
2022-12-26T23:49:40.117Z,0.93
2022-12-26T23:52:06.441Z,0.80
2022-12-26T23:54:33.182Z,0.90
2022-12-26T23:56:59.747Z,1.08
2022-12-26T23:59:26.120Z,0.90
